Time,TemperatureF,DewpointF,PressureIn,WindDirection,WindDirectionDegrees,WindSpeedMPH,WindSpeedGustMPH,Humidity,HourlyPrecipIn,Conditions,Clouds,dailyrainin,SoftwareType,DateUTC
2013-01-21 00:01:00,37.9,35.2,30.08,West,259,0.0,0.0,90,0.00,,---,0.00,VWS V14.00,2013-01-21 05:01:00,
2013-01-21 00:02:00,37.9,35.2,30.08,WSW,258,0.0,0.0,90,0.00,,---,0.00,VWS V14.00,2013-01-21 05:02:00,
2013-01-21 00:03:00,37.9,35.2,30.08,WSW,258,0.0,0.0,90,0.00,,---,0.00,VWS V14.00,2013-01-21 05:03:00,
2013-01-21 00:08:00,37.8,35.1,30.08,WSW,258,0.0,0.0,90,0.00,,---,0.00,VWS V14.00,2013-01-21 05:08:00,
2013-01-21 00:13:00,37.9,35.5,30.08,West,259,0.0,0.0,91,0.00,,---,0.00,VWS V14.00,2013-01-21 05:13:00,
2013-01-21 00:18:00,38.0,35.3,30.07,WSW,258,0.0,0.0,90,0.00,,---,0.00,VWS V14.00,2013-01-21 05:18:00,
2013-01-21 00:23:00,38.0,35.3,30.07,WSW,258,0.0,0.0,90,0.00,,---,0.00,VWS V14.00,2013-01-21 05:23:00,
2013-01-21 00:28:00,37.9,35.2,30.07,WSW,258,0.0,0.0,90,0.00,,---,0.00,VWS V14.00,2013-01-21 05:28:00,
2013-01-21 00:33:00,37.7,34.8,30.07,WSW,258,0.0,0.0,89,0.00,,---,0.00,VWS V14.00,2013-01-21 05:33:00,
2013-01-21 00:38:00,37.7,35.0,30.07,WSW,258,0.0,0.0,90,0.00,,---,0.00,VWS V14.00,2013-01-21 05:38:00,
2013-01-21 00:43:00,37.6,34.9,30.07,WSW,258,0.0,0.0,90,0.00,,---,0.00,VWS V14.00,2013-01-21 05:43:00,
2013-01-21 00:48:00,37.5,34.8,30.07,WSW,258,0.0,0.0,90,0.00,,---,0.00,VWS V14.00,2013-01-21 05:48:00,
2013-01-21 00:53:00,37.2,34.3,30.07,North,356,5.0,6.0,89,0.00,,---,0.00,VWS V14.00,2013-01-21 05:53:00,
2013-01-21 00:58:00,37.3,34.9,30.08,NNW,340,6.0,8.0,91,0.00,,---,0.00,VWS V14.00,2013-01-21 05:58:00,
2013-01-21 01:03:00,39.3,36.6,30.08,NNW,345,1.0,8.0,90,0.00,,---,0.00,VWS V14.00,2013-01-21 06:03:00,
2013-01-21 01:08:00,39.8,36.8,30.08,NNW,346,0.0,8.0,89,0.00,,---,0.00,VWS V14.00,2013-01-21 06:08:00,
2013-01-21 01:13:00,40.0,36.7,30.08,NNW,346,0.0,8.0,88,0.00,,---,0.00,VWS V14.00,2013-01-21 06:13:00,
2013-01-21 01:18:00,40.0,36.5,30.08,NNW,346,0.0,8.0,87,0.00,,---,0.00,VWS V14.00,2013-01-21 06:18:00,
2013-01-21 01:23:00,39.3,35.5,30.07,NNW,346,0.0,8.0,86,0.00,,---,0.00,VWS V14.00,2013-01-21 06:23:00,
2013-01-21 01:28:00,38.8,35.0,30.08,NNW,346,0.0,0.0,86,0.00,,---,0.00,VWS V14.00,2013-01-21 06:28:00,
2013-01-21 01:33:00,38.6,35.1,30.07,NNW,345,0.0,0.0,87,0.00,,---,0.00,VWS V14.00,2013-01-21 06:33:00,
2013-01-21 01:38:00,38.6,35.4,30.07,NNW,346,0.0,0.0,88,0.00,,---,0.00,VWS V14.00,2013-01-21 06:38:00,
2013-01-21 01:43:00,38.2,35.0,30.07,NNW,346,0.0,0.0,88,0.00,,---,0.00,VWS V14.00,2013-01-21 06:43:00,
2013-01-21 01:48:00,37.7,34.8,30.07,NNW,346,2.0,2.0,89,0.00,,---,0.00,VWS V14.00,2013-01-21 06:48:00,
2013-01-21 01:53:00,38.5,35.5,30.07,NNW,346,2.0,3.0,89,0.00,,---,0.00,VWS V14.00,2013-01-21 06:53:00,
2013-01-21 01:58:00,38.9,35.7,30.07,NNW,346,0.0,0.0,88,0.00,,---,0.00,VWS V14.00,2013-01-21 06:58:00,
2013-01-21 02:04:00,38.3,34.2,30.07,NNW,345,0.0,0.0,85,0.00,,---,0.00,VWS V14.00,2013-01-21 07:04:00,
2013-01-21 02:09:00,37.5,33.7,30.07,NNW,345,0.0,0.0,86,0.00,,---,0.00,VWS V14.00,2013-01-21 07:09:00,
2013-01-21 02:14:00,37.2,34.3,30.07,NNW,346,1.0,2.0,89,0.00,,---,0.00,VWS V14.00,2013-01-21 07:14:00,
2013-01-21 02:19:00,37.8,34.9,30.07,NNW,346,2.0,3.0,89,0.00,,---,0.00,VWS V14.00,2013-01-21 07:19:00,
2013-01-21 02:24:00,38.0,34.8,30.07,NNW,346,3.0,3.0,88,0.00,,---,0.00,VWS V14.00,2013-01-21 07:24:00,
2013-01-21 02:29:00,37.8,34.6,30.07,NNW,346,1.0,2.0,88,0.00,,---,0.00,VWS V14.00,2013-01-21 07:29:00,
2013-01-21 02:34:00,37.5,34.3,30.07,NNW,346,0.0,2.0,88,0.00,,---,0.00,VWS V14.00,2013-01-21 07:34:00,
2013-01-21 02:39:00,37.4,34.2,30.07,NNW,346,0.0,2.0,88,0.00,,---,0.00,VWS V14.00,2013-01-21 07:39:00,
2013-01-21 02:44:00,37.2,34.0,30.06,NNW,346,1.0,2.0,88,0.00,,---,0.00,VWS V14.00,2013-01-21 07:44:00,
2013-01-21 02:49:00,37.2,34.3,30.06,NNW,346,2.0,3.0,89,0.00,,---,0.00,VWS V14.00,2013-01-21 07:49:00,
2013-01-21 02:54:00,37.2,34.3,30.06,NNW,346,1.0,3.0,89,0.00,,---,0.00,VWS V14.00,2013-01-21 07:54:00,
2013-01-21 02:59:00,37.1,34.2,30.06,NNW,346,0.0,0.0,89,0.00,,---,0.00,VWS V14.00,2013-01-21 07:59:00,
2013-01-21 03:04:00,36.8,33.6,30.06,NNW,346,0.0,0.0,88,0.00,,---,0.00,VWS V14.00,2013-01-21 08:04:00,
2013-01-21 03:09:00,36.4,33.2,30.07,NNW,346,0.0,1.0,88,0.00,,---,0.00,VWS V14.00,2013-01-21 08:09:00,
2013-01-21 03:14:00,36.0,32.8,30.06,NNW,346,0.0,1.0,88,0.00,,---,0.00,VWS V14.00,2013-01-21 08:14:00,
2013-01-21 03:19:00,35.3,32.1,30.06,NNW,346,0.0,1.0,88,0.00,,---,0.00,VWS V14.00,2013-01-21 08:19:00,
2013-01-21 03:24:00,34.7,31.8,30.07,NNW,345,0.0,1.0,89,0.00,,---,0.00,VWS V14.00,2013-01-21 08:24:00,
2013-01-21 03:29:00,34.2,31.6,30.07,NNW,346,0.0,0.0,90,0.00,,---,0.00,VWS V14.00,2013-01-21 08:29:00,
2013-01-21 03:34:00,34.0,31.6,30.06,NNW,346,0.0,0.0,91,0.00,,---,0.00,VWS V14.00,2013-01-21 08:34:00,
2013-01-21 03:39:00,34.2,32.1,30.06,NNW,346,0.0,1.0,92,0.00,,---,0.00,VWS V14.00,2013-01-21 08:39:00,
2013-01-21 03:44:00,34.4,32.3,30.06,NNW,346,1.0,1.0,92,0.00,,---,0.00,VWS V14.00,2013-01-21 08:44:00,
2013-01-21 03:49:00,34.7,32.9,30.06,NNW,346,0.0,2.0,93,0.00,,---,0.00,VWS V14.00,2013-01-21 08:49:00,
2013-01-21 03:54:00,34.8,32.7,30.06,NNW,346,0.0,2.0,92,0.00,,---,0.00,VWS V14.00,2013-01-21 08:54:00,
2013-01-21 03:59:00,34.6,32.5,30.06,NNW,346,0.0,0.0,92,0.00,,---,0.00,VWS V14.00,2013-01-21 08:59:00,
2013-01-21 04:04:00,34.6,32.5,30.06,NNW,346,0.0,0.0,92,0.00,,---,0.00,VWS V14.00,2013-01-21 09:04:00,
2013-01-21 04:09:00,34.7,32.6,30.06,NNW,346,0.0,0.0,92,0.00,,---,0.00,VWS V14.00,2013-01-21 09:09:00,
2013-01-21 04:14:00,34.6,32.5,30.06,NNW,346,0.0,0.0,92,0.00,,---,0.00,VWS V14.00,2013-01-21 09:14:00,
2013-01-21 04:19:00,34.6,32.5,30.06,NNW,345,0.0,0.0,92,0.00,,---,0.00,VWS V14.00,2013-01-21 09:19:00,
2013-01-21 04:24:00,34.5,32.4,30.06,NNW,345,0.0,0.0,92,0.00,,---,0.00,VWS V14.00,2013-01-21 09:24:00,
2013-01-21 04:29:00,34.3,32.2,30.06,NNW,345,0.0,0.0,92,0.00,,---,0.00,VWS V14.00,2013-01-21 09:29:00,
2013-01-21 04:34:00,34.1,32.0,30.06,NNW,346,0.0,0.0,92,0.00,,---,0.00,VWS V14.00,2013-01-21 09:34:00,
2013-01-21 04:39:00,34.1,32.0,30.06,NNW,346,0.0,0.0,92,0.00,,---,0.00,VWS V14.00,2013-01-21 09:39:00,
2013-01-21 04:44:00,34.5,32.7,30.06,NNW,345,0.0,1.0,93,0.00,,---,0.00,VWS V14.00,2013-01-21 09:44:00,
2013-01-21 04:49:00,34.7,32.9,30.06,NNW,346,0.0,1.0,93,0.00,,---,0.00,VWS V14.00,2013-01-21 09:49:00,
2013-01-21 04:54:00,34.4,32.3,30.06,NNW,346,0.0,1.0,92,0.00,,---,0.00,VWS V14.00,2013-01-21 09:54:00,
2013-01-21 04:59:00,34.3,32.5,30.06,NNW,346,0.0,0.0,93,0.00,,---,0.00,VWS V14.00,2013-01-21 09:59:00,
2013-01-21 05:04:00,34.4,32.6,30.06,NNW,346,0.0,0.0,93,0.00,,---,0.00,VWS V14.00,2013-01-21 10:04:00,
2013-01-21 05:09:00,34.4,32.6,30.06,NNW,346,0.0,1.0,93,0.00,,---,0.00,VWS V14.00,2013-01-21 10:09:00,
2013-01-21 05:14:00,34.4,32.6,30.05,NNW,346,0.0,1.0,93,0.00,,---,0.00,VWS V14.00,2013-01-21 10:14:00,
2013-01-21 05:19:00,34.3,32.2,30.05,NNW,346,0.0,1.0,92,0.00,,---,0.00,VWS V14.00,2013-01-21 10:19:00,
2013-01-21 05:24:00,34.2,32.1,30.05,NNW,346,0.0,1.0,92,0.00,,---,0.00,VWS V14.00,2013-01-21 10:24:00,
2013-01-21 05:29:00,34.1,32.0,30.05,NNW,346,0.0,0.0,92,0.00,,---,0.00,VWS V14.00,2013-01-21 10:29:00,
2013-01-21 05:34:00,33.9,31.8,30.05,NNW,346,0.0,0.0,92,0.00,,---,0.00,VWS V14.00,2013-01-21 10:34:00,
2013-01-21 05:39:00,33.8,31.7,30.05,NNW,346,0.0,0.0,92,0.00,,---,0.00,VWS V14.00,2013-01-21 10:39:00,
2013-01-21 05:44:00,33.7,31.9,30.05,NNW,346,0.0,0.0,93,0.00,,---,0.00,VWS V14.00,2013-01-21 10:44:00,
2013-01-21 05:49:00,33.5,31.4,30.05,NNW,346,0.0,1.0,92,0.00,,---,0.00,VWS V14.00,2013-01-21 10:49:00,
2013-01-21 05:54:00,33.3,31.2,30.05,NNW,346,0.0,1.0,92,0.00,,---,0.00,VWS V14.00,2013-01-21 10:54:00,
2013-01-21 05:59:00,33.1,31.0,30.05,NNW,346,0.0,0.0,92,0.00,,---,0.00,VWS V14.00,2013-01-21 10:59:00,
2013-01-21 06:04:00,33.2,31.4,30.06,NNW,345,0.0,0.0,93,0.00,,---,0.00,VWS V14.00,2013-01-21 11:04:00,
2013-01-21 06:09:00,33.4,31.6,30.05,NNW,346,0.0,0.0,93,0.00,,---,0.00,VWS V14.00,2013-01-21 11:09:00,
2013-01-21 06:14:00,33.4,31.6,30.06,NNW,345,0.0,0.0,93,0.00,,---,0.00,VWS V14.00,2013-01-21 11:14:00,
2013-01-21 06:19:00,33.0,30.9,30.06,NNW,346,0.0,0.0,92,0.00,,---,0.00,VWS V14.00,2013-01-21 11:19:00,
2013-01-21 06:24:00,32.9,31.1,30.06,NNW,346,0.0,0.0,93,0.00,,---,0.00,VWS V14.00,2013-01-21 11:24:00,
2013-01-21 06:29:00,32.7,30.6,30.06,NNW,346,0.0,0.0,92,0.00,,---,0.00,VWS V14.00,2013-01-21 11:29:00,
2013-01-21 06:34:00,32.3,30.2,30.06,NNW,345,0.0,0.0,92,0.00,,---,0.00,VWS V14.00,2013-01-21 11:34:00,
2013-01-21 06:39:00,31.9,29.8,30.07,NNW,345,0.0,0.0,92,0.00,,---,0.00,VWS V14.00,2013-01-21 11:39:00,
2013-01-21 06:44:00,31.7,29.6,30.07,NNW,346,0.0,0.0,92,0.00,,---,0.00,VWS V14.00,2013-01-21 11:44:00,
2013-01-21 06:49:00,31.6,29.8,30.07,NNW,346,0.0,0.0,93,0.00,,---,0.00,VWS V14.00,2013-01-21 11:49:00,
2013-01-21 06:54:00,32.1,30.6,30.07,NNW,346,0.0,0.0,94,0.00,,---,0.00,VWS V14.00,2013-01-21 11:54:00,
2013-01-21 06:59:00,32.4,30.9,30.07,NNW,346,0.0,0.0,94,0.00,,---,0.00,VWS V14.00,2013-01-21 11:59:00,
2013-01-21 07:04:00,32.3,30.5,30.07,NNW,346,0.0,0.0,93,0.00,,---,0.00,VWS V14.00,2013-01-21 12:04:00,
2013-01-21 07:09:00,32.0,30.2,30.07,NNW,346,0.0,0.0,93,0.00,,---,0.00,VWS V14.00,2013-01-21 12:09:00,
2013-01-21 07:14:00,32.0,30.2,30.07,NNW,345,0.0,0.0,93,0.00,,---,0.00,VWS V14.00,2013-01-21 12:14:00,
2013-01-21 07:19:00,32.1,30.3,30.07,NNW,346,0.0,0.0,93,0.00,,---,0.00,VWS V14.00,2013-01-21 12:19:00,
2013-01-21 07:24:00,32.0,30.2,30.07,NNW,346,0.0,0.0,93,0.00,,---,0.00,VWS V14.00,2013-01-21 12:24:00,
2013-01-21 07:29:00,31.9,30.1,30.07,NNW,346,0.0,0.0,93,0.00,,---,0.00,VWS V14.00,2013-01-21 12:29:00,
2013-01-21 07:34:00,31.9,30.1,30.07,NNW,345,0.0,0.0,93,0.00,,---,0.00,VWS V14.00,2013-01-21 12:34:00,
2013-01-21 07:39:00,32.0,30.2,30.07,NNW,346,0.0,1.0,93,0.00,,---,0.00,VWS V14.00,2013-01-21 12:39:00,
2013-01-21 07:44:00,32.3,30.5,30.07,NNW,346,0.0,1.0,93,0.00,,---,0.00,VWS V14.00,2013-01-21 12:44:00,
2013-01-21 07:49:00,32.5,30.7,30.07,NNW,345,0.0,1.0,93,0.00,,---,0.00,VWS V14.00,2013-01-21 12:49:00,
2013-01-21 07:54:00,32.6,30.8,30.07,NNW,346,0.0,1.0,93,0.00,,---,0.00,VWS V14.00,2013-01-21 12:54:00,
2013-01-21 07:59:00,32.8,31.0,30.07,NNW,346,0.0,0.0,93,0.00,,---,0.00,VWS V14.00,2013-01-21 12:59:00,
2013-01-21 08:04:00,33.0,31.2,30.07,NNW,346,0.0,0.0,93,0.00,,---,0.00,VWS V14.00,2013-01-21 13:04:00,
2013-01-21 08:09:00,33.3,31.5,30.07,NNW,346,0.0,0.0,93,0.00,,---,0.00,VWS V14.00,2013-01-21 13:09:00,
2013-01-21 08:14:00,33.9,32.4,30.08,NNW,346,0.0,0.0,94,0.00,,---,0.00,VWS V14.00,2013-01-21 13:14:00,
2013-01-21 08:19:00,34.5,33.0,30.07,NNW,346,0.0,0.0,94,0.00,,---,0.00,VWS V14.00,2013-01-21 13:19:00,
2013-01-21 08:24:00,35.3,34.0,30.08,NNW,346,0.0,0.0,95,0.00,,---,0.00,VWS V14.00,2013-01-21 13:24:00,
2013-01-21 08:29:00,36.3,35.0,30.08,NNW,346,0.0,0.0,95,0.00,,---,0.00,VWS V14.00,2013-01-21 13:29:00,
2013-01-21 08:34:00,37.2,35.9,30.08,NNW,346,0.0,0.0,95,0.00,,---,0.00,VWS V14.00,2013-01-21 13:34:00,
2013-01-21 08:39:00,38.2,36.6,30.08,NNW,346,0.0,1.0,94,0.00,,---,0.00,VWS V14.00,2013-01-21 13:39:00,
2013-01-21 08:44:00,39.3,37.2,30.08,NNW,346,0.0,1.0,92,0.00,,---,0.00,VWS V14.00,2013-01-21 13:44:00,
2013-01-21 08:49:00,40.5,37.5,30.08,NNW,346,0.0,1.0,89,0.00,,---,0.00,VWS V14.00,2013-01-21 13:49:00,
2013-01-21 08:54:00,41.7,37.8,30.08,NNW,346,0.0,1.0,86,0.00,,---,0.00,VWS V14.00,2013-01-21 13:54:00,
2013-01-21 08:59:00,42.9,38.7,30.08,NE,34,3.0,3.0,85,0.00,,---,0.00,VWS V14.00,2013-01-21 13:59:00,
2013-01-21 09:04:00,44.4,38.9,30.08,ENE,73,3.0,5.0,81,0.00,,---,0.00,VWS V14.00,2013-01-21 14:04:00,
2013-01-21 09:09:00,45.6,37.8,30.08,East,87,2.0,5.0,74,0.00,,---,0.00,VWS V14.00,2013-01-21 14:09:00,
2013-01-21 09:14:00,46.6,38.1,30.08,ENE,73,3.0,5.0,72,0.00,,---,0.00,VWS V14.00,2013-01-21 14:14:00,
2013-01-21 09:19:00,47.5,38.6,30.08,East,85,2.0,5.0,71,0.00,,---,0.00,VWS V14.00,2013-01-21 14:19:00,
2013-01-21 09:24:00,48.1,38.0,30.08,East,86,2.0,5.0,68,0.00,,---,0.00,VWS V14.00,2013-01-21 14:24:00,
2013-01-21 09:29:00,48.6,38.5,30.08,East,96,2.0,4.0,68,0.00,,---,0.00,VWS V14.00,2013-01-21 14:29:00,
2013-01-21 09:34:00,49.3,38.4,30.08,East,91,3.0,7.0,66,0.00,,---,0.00,VWS V14.00,2013-01-21 14:34:00,
2013-01-21 09:39:00,50.1,39.2,30.08,East,95,3.0,7.0,66,0.00,,---,0.00,VWS V14.00,2013-01-21 14:39:00,
2013-01-21 09:44:00,51.0,39.3,30.08,East,99,4.0,7.0,64,0.00,,---,0.00,VWS V14.00,2013-01-21 14:44:00,
2013-01-21 09:49:00,51.7,39.5,30.08,ESE,106,2.0,7.0,63,0.00,,---,0.00,VWS V14.00,2013-01-21 14:49:00,
2013-01-21 09:54:00,52.5,39.5,30.08,East,93,3.0,7.0,61,0.00,,---,0.00,VWS V14.00,2013-01-21 14:54:00,
2013-01-21 09:59:00,53.4,39.9,30.08,ESE,106,2.0,4.0,60,0.00,,---,0.00,VWS V14.00,2013-01-21 14:59:00,
2013-01-21 10:04:00,54.1,39.7,30.08,East,97,3.0,9.0,58,0.00,,---,0.00,VWS V14.00,2013-01-21 15:04:00,
2013-01-21 10:09:00,54.5,39.1,30.08,SE,124,5.0,9.0,56,0.00,,---,0.00,VWS V14.00,2013-01-21 15:09:00,
2013-01-21 10:14:00,54.5,40.0,30.08,ESE,105,5.0,9.0,58,0.00,,---,0.00,VWS V14.00,2013-01-21 15:14:00,
2013-01-21 10:19:00,55.0,40.5,30.08,ESE,108,7.0,9.0,58,0.00,,---,0.00,VWS V14.00,2013-01-21 15:19:00,
2013-01-21 10:24:00,55.3,41.2,30.08,ESE,104,8.0,9.0,59,0.00,,---,0.00,VWS V14.00,2013-01-21 15:24:00,
2013-01-21 10:29:00,55.8,41.7,30.08,East,98,7.0,8.0,59,0.00,,---,0.00,VWS V14.00,2013-01-21 15:29:00,
2013-01-21 10:34:00,56.0,41.9,30.07,ESE,121,7.0,9.0,59,0.00,,---,0.00,VWS V14.00,2013-01-21 15:34:00,
2013-01-21 10:39:00,55.9,41.3,30.07,East,95,5.0,11.0,58,0.00,,---,0.00,VWS V14.00,2013-01-21 15:39:00,
2013-01-21 10:44:00,56.2,43.0,30.07,ESE,110,8.0,11.0,61,0.00,,---,0.00,VWS V14.00,2013-01-21 15:44:00,
2013-01-21 10:49:00,56.6,42.0,30.07,ESE,121,5.0,11.0,58,0.00,,---,0.00,VWS V14.00,2013-01-21 15:49:00,
2013-01-21 10:54:00,56.5,41.9,30.07,SE,138,7.0,11.0,58,0.00,,---,0.00,VWS V14.00,2013-01-21 15:54:00,
2013-01-21 10:59:00,56.8,42.6,30.07,East,89,7.0,12.0,59,0.00,,---,0.00,VWS V14.00,2013-01-21 15:59:00,
2013-01-21 11:04:00,57.2,43.0,30.06,SE,125,8.0,12.0,59,0.00,,---,0.00,VWS V14.00,2013-01-21 16:04:00,
2013-01-21 11:09:00,57.4,43.2,30.06,East,93,8.0,12.0,59,0.00,,---,0.00,VWS V14.00,2013-01-21 16:09:00,
2013-01-21 11:14:00,57.7,43.5,30.05,SE,124,11.0,12.0,59,0.00,,---,0.00,VWS V14.00,2013-01-21 16:14:00,
2013-01-21 11:19:00,58.3,44.5,30.05,SE,133,7.0,12.0,60,0.00,,---,0.00,VWS V14.00,2013-01-21 16:19:00,
2013-01-21 11:24:00,58.3,43.6,30.05,SE,137,8.0,12.0,58,0.00,,---,0.00,VWS V14.00,2013-01-21 16:24:00,
2013-01-21 11:29:00,58.0,44.2,30.05,ESE,109,4.0,9.0,60,0.00,,---,0.00,VWS V14.00,2013-01-21 16:29:00,
2013-01-21 11:34:00,58.4,44.6,30.04,ESE,104,3.0,9.0,60,0.00,,---,0.00,VWS V14.00,2013-01-21 16:34:00,
2013-01-21 11:39:00,58.9,44.6,30.04,ESE,115,7.0,9.0,59,0.00,,---,0.00,VWS V14.00,2013-01-21 16:39:00,
2013-01-21 11:44:00,59.0,44.3,30.04,South,169,6.0,9.0,58,0.00,,---,0.00,VWS V14.00,2013-01-21 16:44:00,
2013-01-21 11:49:00,58.5,44.2,30.03,SE,137,10.0,11.0,59,0.00,,---,0.00,VWS V14.00,2013-01-21 16:49:00,
2013-01-21 11:54:00,58.5,44.7,30.03,ESE,118,9.0,11.0,60,0.00,,---,0.00,VWS V14.00,2013-01-21 16:54:00,
2013-01-21 11:59:00,58.8,44.5,30.03,ESE,120,7.0,9.0,59,0.00,,---,0.00,VWS V14.00,2013-01-21 16:59:00,
2013-01-21 12:04:00,59.3,45.9,30.02,SSE,162,5.0,9.0,61,0.00,,---,0.00,VWS V14.00,2013-01-21 17:04:00,
2013-01-21 12:09:00,59.3,45.0,30.02,SE,137,7.0,9.0,59,0.00,,---,0.00,VWS V14.00,2013-01-21 17:09:00,
2013-01-21 12:14:00,59.3,44.5,30.01,South,186,6.0,11.0,58,0.00,,---,0.00,VWS V14.00,2013-01-21 17:14:00,
2013-01-21 12:19:00,59.6,45.3,30.01,SSE,148,6.0,11.0,59,0.00,,---,0.00,VWS V14.00,2013-01-21 17:19:00,
2013-01-21 12:24:00,59.5,44.7,30.00,SE,143,8.0,12.0,58,0.00,,---,0.00,VWS V14.00,2013-01-21 17:24:00,
2013-01-21 12:29:00,59.9,46.0,30.00,South,187,4.0,8.0,60,0.00,,---,0.00,VWS V14.00,2013-01-21 17:29:00,
2013-01-21 12:34:00,60.4,45.1,30.00,SSE,151,6.0,11.0,57,0.00,,---,0.00,VWS V14.00,2013-01-21 17:34:00,
2013-01-21 12:39:00,60.2,44.9,29.99,SSE,154,7.0,11.0,57,0.00,,---,0.00,VWS V14.00,2013-01-21 17:39:00,
2013-01-21 12:44:00,60.5,46.1,29.99,South,172,7.0,12.0,59,0.00,,---,0.00,VWS V14.00,2013-01-21 17:44:00,
2013-01-21 12:49:00,61.1,46.2,29.98,SSE,164,6.0,12.0,58,0.00,,---,0.00,VWS V14.00,2013-01-21 17:49:00,
2013-01-21 12:54:00,61.2,45.9,29.98,South,187,8.0,12.0,57,0.00,,---,0.00,VWS V14.00,2013-01-21 17:54:00,
2013-01-21 12:59:00,61.0,45.7,29.98,South,177,5.0,13.0,57,0.00,,---,0.00,VWS V14.00,2013-01-21 17:59:00,
2013-01-21 13:04:00,61.1,46.2,29.98,SW,222,9.0,13.0,58,0.00,,---,0.00,VWS V14.00,2013-01-21 18:04:00,
2013-01-21 13:09:00,61.4,45.6,29.97,South,182,7.0,13.0,56,0.00,,---,0.00,VWS V14.00,2013-01-21 18:09:00,
2013-01-21 13:14:00,60.9,45.6,29.97,South,175,9.0,13.0,57,0.00,,---,0.00,VWS V14.00,2013-01-21 18:14:00,
2013-01-21 13:19:00,61.0,45.7,29.97,SSE,160,12.0,13.0,57,0.00,,---,0.00,VWS V14.00,2013-01-21 18:19:00,
2013-01-21 13:24:00,61.3,46.0,29.96,South,179,11.0,15.0,57,0.00,,---,0.00,VWS V14.00,2013-01-21 18:24:00,
2013-01-21 13:29:00,60.6,45.3,29.96,SE,139,8.0,16.0,57,0.00,,---,0.00,VWS V14.00,2013-01-21 18:29:00,
2013-01-21 13:34:00,60.6,45.8,29.96,SSE,161,10.0,16.0,58,0.00,,---,0.00,VWS V14.00,2013-01-21 18:34:00,
2013-01-21 13:39:00,60.1,45.3,29.96,SSE,160,7.0,16.0,58,0.00,,---,0.00,VWS V14.00,2013-01-21 18:39:00,
2013-01-21 13:44:00,60.3,45.5,29.95,South,190,10.0,16.0,58,0.00,,---,0.00,VWS V14.00,2013-01-21 18:44:00,
2013-01-21 13:49:00,60.8,47.3,29.95,SSE,152,7.0,16.0,61,0.00,,---,0.00,VWS V14.00,2013-01-21 18:49:00,
2013-01-21 13:54:00,60.8,45.5,29.95,South,172,8.0,16.0,57,0.00,,---,0.00,VWS V14.00,2013-01-21 18:54:00,
2013-01-21 13:59:00,60.6,45.8,29.94,South,179,10.0,13.0,58,0.00,,---,0.00,VWS V14.00,2013-01-21 18:59:00,
2013-01-21 14:04:00,61.1,46.7,29.94,South,174,5.0,14.0,59,0.00,,---,0.00,VWS V14.00,2013-01-21 19:04:00,
2013-01-21 14:09:00,61.1,46.2,29.94,SSE,148,7.0,14.0,58,0.00,,---,0.00,VWS V14.00,2013-01-21 19:09:00,
2013-01-21 14:14:00,60.9,46.5,29.93,SE,140,9.0,14.0,59,0.00,,---,0.00,VWS V14.00,2013-01-21 19:14:00,
2013-01-21 14:19:00,60.6,46.2,29.93,SE,139,6.0,14.0,59,0.00,,---,0.00,VWS V14.00,2013-01-21 19:19:00,
2013-01-21 14:24:00,60.8,46.0,29.93,South,189,9.0,14.0,58,0.00,,---,0.00,VWS V14.00,2013-01-21 19:24:00,
2013-01-21 14:29:00,61.0,45.2,29.93,SE,146,10.0,13.0,56,0.00,,---,0.00,VWS V14.00,2013-01-21 19:29:00,
2013-01-21 14:34:00,61.0,45.7,29.93,SSE,168,11.0,14.0,57,0.00,,---,0.00,VWS V14.00,2013-01-21 19:34:00,
2013-01-21 14:39:00,61.0,45.7,29.93,South,183,8.0,14.0,57,0.00,,---,0.00,VWS V14.00,2013-01-21 19:39:00,
2013-01-21 14:44:00,61.1,45.8,29.93,SE,146,12.0,14.0,57,0.00,,---,0.00,VWS V14.00,2013-01-21 19:44:00,
2013-01-21 14:49:00,60.5,45.7,29.92,SSE,150,7.0,15.0,58,0.00,,---,0.00,VWS V14.00,2013-01-21 19:49:00,
2013-01-21 14:54:00,60.3,45.5,29.92,SSE,151,9.0,15.0,58,0.00,,---,0.00,VWS V14.00,2013-01-21 19:54:00,
2013-01-21 14:59:00,60.4,46.0,29.92,South,169,7.0,12.0,59,0.00,,---,0.00,VWS V14.00,2013-01-21 19:59:00,
2013-01-21 15:04:00,60.4,46.0,29.92,South,181,8.0,13.0,59,0.00,,---,0.00,VWS V14.00,2013-01-21 20:04:00,
2013-01-21 15:09:00,60.2,46.3,29.91,South,189,8.0,15.0,60,0.00,,---,0.00,VWS V14.00,2013-01-21 20:09:00,
2013-01-21 15:14:00,59.9,46.9,29.91,South,183,9.0,15.0,62,0.00,,---,0.00,VWS V14.00,2013-01-21 20:14:00,
2013-01-21 15:19:00,59.9,47.3,29.91,South,182,12.0,16.0,63,0.00,,---,0.00,VWS V14.00,2013-01-21 20:19:00,
2013-01-21 15:24:00,60.1,47.0,29.91,South,176,10.0,16.0,62,0.00,,---,0.00,VWS V14.00,2013-01-21 20:24:00,
2013-01-21 15:29:00,60.2,47.2,29.90,South,170,6.0,7.0,62,0.00,,---,0.00,VWS V14.00,2013-01-21 20:29:00,
2013-01-21 15:34:00,60.5,46.6,29.90,SSW,198,6.0,10.0,60,0.00,,---,0.00,VWS V14.00,2013-01-21 20:34:00,
2013-01-21 15:39:00,60.9,46.5,29.90,South,191,6.0,12.0,59,0.00,,---,0.00,VWS V14.00,2013-01-21 20:39:00,
2013-01-21 15:44:00,61.1,46.7,29.91,SSW,212,8.0,12.0,59,0.00,,---,0.00,VWS V14.00,2013-01-21 20:44:00,
2013-01-21 15:49:00,60.9,46.9,29.91,South,180,7.0,12.0,60,0.00,,---,0.00,VWS V14.00,2013-01-21 20:49:00,
2013-01-21 15:54:00,61.2,44.9,29.91,SSW,211,6.0,12.0,55,0.00,,---,0.00,VWS V14.00,2013-01-21 20:54:00,
2013-01-21 15:59:00,61.6,43.3,29.90,SSW,204,11.0,12.0,51,0.00,,---,0.00,VWS V14.00,2013-01-21 20:59:00,
2013-01-21 16:04:00,61.7,43.4,29.90,SW,227,12.0,14.0,51,0.00,,---,0.00,VWS V14.00,2013-01-21 21:04:00,
2013-01-21 16:09:00,61.6,42.3,29.90,SSW,209,6.0,14.0,49,0.00,,---,0.00,VWS V14.00,2013-01-21 21:09:00,
2013-01-21 16:14:00,61.6,42.3,29.90,SW,235,9.0,15.0,49,0.00,,---,0.00,VWS V14.00,2013-01-21 21:14:00,
2013-01-21 16:19:00,61.4,42.1,29.90,SW,219,10.0,15.0,49,0.00,,---,0.00,VWS V14.00,2013-01-21 21:19:00,
2013-01-21 16:24:00,61.4,42.6,29.90,SW,215,9.0,17.0,50,0.00,,---,0.00,VWS V14.00,2013-01-21 21:24:00,
2013-01-21 16:29:00,61.1,42.8,29.90,SSW,207,11.0,11.0,51,0.00,,---,0.00,VWS V14.00,2013-01-21 21:29:00,
2013-01-21 16:34:00,60.6,43.4,29.91,SSW,211,9.0,11.0,53,0.00,,---,0.00,VWS V14.00,2013-01-21 21:34:00,
2013-01-21 16:39:00,60.2,43.0,29.90,SW,218,7.0,11.0,53,0.00,,---,0.00,VWS V14.00,2013-01-21 21:39:00,
2013-01-21 16:44:00,60.2,43.5,29.91,SW,226,6.0,11.0,54,0.00,,---,0.00,VWS V14.00,2013-01-21 21:44:00,
2013-01-21 16:49:00,60.3,43.6,29.91,SSW,212,9.0,11.0,54,0.00,,---,0.00,VWS V14.00,2013-01-21 21:49:00,
2013-01-21 16:54:00,60.0,43.8,29.90,SSW,209,7.0,11.0,55,0.00,,---,0.00,VWS V14.00,2013-01-21 21:54:00,
2013-01-21 16:59:00,59.7,44.0,29.90,SW,214,8.0,8.0,56,0.00,,---,0.00,VWS V14.00,2013-01-21 21:59:00,
2013-01-21 17:04:00,59.3,43.6,29.90,South,187,7.0,10.0,56,0.00,,---,0.00,VWS V14.00,2013-01-21 22:04:00,
2013-01-21 17:09:00,58.8,43.6,29.90,SW,220,6.0,11.0,57,0.00,,---,0.00,VWS V14.00,2013-01-21 22:09:00,
2013-01-21 17:14:00,58.2,44.0,29.90,SW,218,6.0,11.0,59,0.00,,---,0.00,VWS V14.00,2013-01-21 22:14:00,
2013-01-21 17:19:00,57.7,43.9,29.90,SW,223,8.0,13.0,60,0.00,,---,0.00,VWS V14.00,2013-01-21 22:19:00,
2013-01-21 17:24:00,57.3,44.0,29.90,SW,214,5.0,13.0,61,0.00,,---,0.00,VWS V14.00,2013-01-21 22:24:00,
2013-01-21 17:29:00,56.8,43.9,29.91,SW,220,4.0,7.0,62,0.00,,---,0.00,VWS V14.00,2013-01-21 22:29:00,
2013-01-21 17:34:00,56.4,44.0,29.91,SW,221,4.0,8.0,63,0.00,,---,0.00,VWS V14.00,2013-01-21 22:34:00,
2013-01-21 17:39:00,55.9,43.9,29.91,SW,230,4.0,8.0,64,0.00,,---,0.00,VWS V14.00,2013-01-21 22:39:00,
2013-01-21 17:44:00,55.6,44.0,29.91,SW,222,6.0,8.0,65,0.00,,---,0.00,VWS V14.00,2013-01-21 22:44:00,
2013-01-21 17:49:00,55.1,44.0,29.91,SW,218,5.0,8.0,66,0.00,,---,0.00,VWS V14.00,2013-01-21 22:49:00,
2013-01-21 17:54:00,54.9,44.2,29.91,SW,219,4.0,8.0,67,0.00,,---,0.00,VWS V14.00,2013-01-21 22:54:00,
2013-01-21 17:59:00,54.6,43.9,29.91,SW,215,4.0,5.0,67,0.00,,---,0.00,VWS V14.00,2013-01-21 22:59:00,
2013-01-21 18:04:00,54.2,43.9,29.91,SW,220,3.0,5.0,68,0.00,,---,0.00,VWS V14.00,2013-01-21 23:04:00,
2013-01-21 18:09:00,54.1,44.2,29.91,SW,222,3.0,5.0,69,0.00,,---,0.00,VWS V14.00,2013-01-21 23:09:00,
2013-01-21 18:14:00,53.9,44.0,29.91,SW,222,4.0,5.0,69,0.00,,---,0.00,VWS V14.00,2013-01-21 23:14:00,
2013-01-21 18:19:00,53.7,44.2,29.92,SW,236,2.0,5.0,70,0.00,,---,0.00,VWS V14.00,2013-01-21 23:19:00,
2013-01-21 18:24:00,53.3,44.2,29.92,WSW,237,2.0,5.0,71,0.00,,---,0.00,VWS V14.00,2013-01-21 23:24:00,
2013-01-21 18:29:00,53.1,44.3,29.92,WSW,237,2.0,3.0,72,0.00,,---,0.00,VWS V14.00,2013-01-21 23:29:00,
2013-01-21 18:34:00,52.8,44.0,29.92,WSW,237,2.0,4.0,72,0.00,,---,0.00,VWS V14.00,2013-01-21 23:34:00,
2013-01-21 18:39:00,52.6,44.2,29.92,SW,231,3.0,5.0,73,0.00,,---,0.00,VWS V14.00,2013-01-21 23:39:00,
2013-01-21 18:44:00,52.4,44.0,29.92,SW,236,3.0,5.0,73,0.00,,---,0.00,VWS V14.00,2013-01-21 23:44:00,
2013-01-21 18:49:00,52.2,44.2,29.92,WSW,238,3.0,5.0,74,0.00,,---,0.00,VWS V14.00,2013-01-21 23:49:00,
2013-01-21 18:54:00,52.1,44.1,29.93,WSW,238,3.0,5.0,74,0.00,,---,0.00,VWS V14.00,2013-01-21 23:54:00,
2013-01-21 18:59:00,52.0,44.0,29.93,WSW,239,3.0,5.0,74,0.00,,---,0.00,VWS V14.00,2013-01-21 23:59:00,
2013-01-21 19:04:00,51.7,44.0,29.93,SW,234,4.0,5.0,75,0.00,,---,0.00,VWS V14.00,2013-01-22 00:04:00,
2013-01-21 19:09:00,51.4,43.8,29.93,WSW,239,4.0,5.0,75,0.00,,---,0.00,VWS V14.00,2013-01-22 00:09:00,
2013-01-21 19:14:00,51.0,43.7,29.93,WSW,237,3.0,5.0,76,0.00,,---,0.00,VWS V14.00,2013-01-22 00:14:00,
2013-01-21 19:19:00,51.1,44.2,29.93,SW,235,3.0,5.0,77,0.00,,---,0.00,VWS V14.00,2013-01-22 00:19:00,
2013-01-21 19:24:00,51.0,44.0,29.93,SW,229,2.0,5.0,77,0.00,,---,0.00,VWS V14.00,2013-01-22 00:24:00,
2013-01-21 19:29:00,50.8,43.9,29.93,SW,219,3.0,4.0,77,0.00,,---,0.00,VWS V14.00,2013-01-22 00:29:00,
2013-01-21 19:34:00,50.6,44.0,29.93,SW,221,1.0,4.0,78,0.00,,---,0.00,VWS V14.00,2013-01-22 00:34:00,
2013-01-21 19:39:00,50.4,43.8,29.93,SW,233,2.0,4.0,78,0.00,,---,0.00,VWS V14.00,2013-01-22 00:39:00,
2013-01-21 19:44:00,50.2,43.6,29.93,SW,235,2.0,4.0,78,0.00,,---,0.00,VWS V14.00,2013-01-22 00:44:00,
2013-01-21 19:49:00,50.1,43.8,29.93,SW,235,2.0,4.0,79,0.00,,---,0.00,VWS V14.00,2013-01-22 00:49:00,
2013-01-21 19:54:00,50.0,43.8,29.93,SW,235,3.0,4.0,79,0.00,,---,0.00,VWS V14.00,2013-01-22 00:54:00,
2013-01-21 19:59:00,49.9,43.7,29.93,SW,235,4.0,4.0,79,0.00,,---,0.00,VWS V14.00,2013-01-22 00:59:00,
2013-01-21 20:04:00,49.7,43.5,29.93,WSW,239,4.0,4.0,79,0.00,,---,0.00,VWS V14.00,2013-01-22 01:04:00,
2013-01-21 20:09:00,49.6,43.4,29.93,WSW,238,3.0,4.0,79,0.00,,---,0.00,VWS V14.00,2013-01-22 01:09:00,
2013-01-21 20:14:00,49.5,43.6,29.93,WSW,239,2.0,4.0,80,0.00,,---,0.00,VWS V14.00,2013-01-22 01:14:00,
2013-01-21 20:19:00,49.5,43.6,29.93,WSW,238,2.0,4.0,80,0.00,,---,0.00,VWS V14.00,2013-01-22 01:19:00,
2013-01-21 20:24:00,49.4,43.5,29.93,WSW,238,3.0,4.0,80,0.00,,---,0.00,VWS V14.00,2013-01-22 01:24:00,
2013-01-21 20:29:00,49.2,43.0,29.93,SW,231,1.0,3.0,79,0.00,,---,0.00,VWS V14.00,2013-01-22 01:29:00,
2013-01-21 20:34:00,48.9,43.0,29.93,SW,231,2.0,3.0,80,0.00,,---,0.00,VWS V14.00,2013-01-22 01:34:00,
2013-01-21 20:39:00,48.7,42.8,29.94,SW,231,1.0,3.0,80,0.00,,---,0.00,VWS V14.00,2013-01-22 01:39:00,
2013-01-21 20:44:00,48.2,42.3,29.94,SW,231,2.0,3.0,80,0.00,,---,0.00,VWS V14.00,2013-01-22 01:44:00,
2013-01-21 20:49:00,47.8,42.3,29.94,SW,231,2.0,3.0,81,0.00,,---,0.00,VWS V14.00,2013-01-22 01:49:00,
2013-01-21 20:54:00,47.7,42.5,29.94,SW,231,2.0,3.0,82,0.00,,---,0.00,VWS V14.00,2013-01-22 01:54:00,
2013-01-21 20:59:00,47.7,42.2,29.94,SW,231,2.0,3.0,81,0.00,,---,0.00,VWS V14.00,2013-01-22 01:59:00,
2013-01-21 21:04:00,47.4,41.9,29.94,SW,231,2.0,3.0,81,0.00,,---,0.00,VWS V14.00,2013-01-22 02:04:00,
2013-01-21 21:09:00,47.0,41.8,29.94,SW,231,2.0,3.0,82,0.00,,---,0.00,VWS V14.00,2013-01-22 02:09:00,
2013-01-21 21:14:00,46.8,41.3,29.94,SW,231,2.0,4.0,81,0.00,,---,0.00,VWS V14.00,2013-01-22 02:14:00,
2013-01-21 21:19:00,46.9,41.1,29.94,SW,234,1.0,4.0,80,0.00,,---,0.00,VWS V14.00,2013-01-22 02:19:00,
2013-01-21 21:24:00,47.1,41.3,29.94,WSW,242,3.0,5.0,80,0.00,,---,0.00,VWS V14.00,2013-01-22 02:24:00,
2013-01-21 21:29:00,47.5,40.7,29.94,WSW,239,3.0,4.0,77,0.00,,---,0.00,VWS V14.00,2013-01-22 02:29:00,
2013-01-21 21:34:00,47.7,40.5,29.94,WSW,242,3.0,4.0,76,0.00,,---,0.00,VWS V14.00,2013-01-22 02:34:00,
2013-01-21 21:39:00,47.5,40.0,29.95,WSW,242,2.0,4.0,75,0.00,,---,0.00,VWS V14.00,2013-01-22 02:39:00,
2013-01-21 21:44:00,47.5,40.0,29.95,WSW,243,1.0,4.0,75,0.00,,---,0.00,VWS V14.00,2013-01-22 02:44:00,
2013-01-21 21:49:00,47.8,39.9,29.95,WSW,245,0.0,4.0,74,0.00,,---,0.00,VWS V14.00,2013-01-22 02:49:00,
2013-01-21 21:54:00,47.9,39.3,29.95,WSW,245,0.0,4.0,72,0.00,,---,0.00,VWS V14.00,2013-01-22 02:54:00,
2013-01-21 21:59:00,48.0,39.1,29.95,WSW,245,0.0,1.0,71,0.00,,---,0.00,VWS V14.00,2013-01-22 02:59:00,
2013-01-21 22:04:00,47.8,38.9,29.95,WSW,245,2.0,3.0,71,0.00,,---,0.00,VWS V14.00,2013-01-22 03:04:00,
2013-01-21 22:09:00,46.5,38.7,29.95,WSW,245,1.0,3.0,74,0.00,,---,0.00,VWS V14.00,2013-01-22 03:09:00,
2013-01-21 22:14:00,45.1,38.3,29.95,WSW,245,2.0,3.0,77,0.00,,---,0.00,VWS V14.00,2013-01-22 03:14:00,
2013-01-21 22:19:00,44.6,38.2,29.95,WSW,239,2.0,3.0,78,0.00,,---,0.00,VWS V14.00,2013-01-22 03:19:00,
2013-01-21 22:24:00,45.1,38.3,29.95,WSW,239,4.0,4.0,77,0.00,,---,0.00,VWS V14.00,2013-01-22 03:24:00,
2013-01-21 22:29:00,46.0,38.2,29.95,WSW,244,3.0,3.0,74,0.00,,---,0.00,VWS V14.00,2013-01-22 03:29:00,
2013-01-21 22:34:00,46.6,37.7,29.95,WSW,245,3.0,5.0,71,0.00,,---,0.00,VWS V14.00,2013-01-22 03:34:00,
2013-01-21 22:39:00,46.9,37.3,29.95,WSW,243,6.0,7.0,69,0.00,,---,0.00,VWS V14.00,2013-01-22 03:39:00,
2013-01-21 22:44:00,47.2,37.2,29.95,WSW,251,4.0,7.0,68,0.00,,---,0.00,VWS V14.00,2013-01-22 03:44:00,
2013-01-21 22:49:00,47.8,37.0,29.95,West,264,3.0,7.0,66,0.00,,---,0.00,VWS V14.00,2013-01-22 03:49:00,
2013-01-21 22:54:00,48.0,37.2,29.95,WSW,252,4.0,7.0,66,0.00,,---,0.00,VWS V14.00,2013-01-22 03:54:00,
2013-01-21 22:59:00,48.1,36.9,29.95,WSW,256,7.0,8.0,65,0.00,,---,0.00,VWS V14.00,2013-01-22 03:59:00,
2013-01-21 23:04:00,49.2,37.2,29.95,WSW,254,4.0,12.0,63,0.00,,---,0.00,VWS V14.00,2013-01-22 04:04:00,
2013-01-21 23:09:00,49.2,36.3,29.95,West,263,5.0,12.0,61,0.00,,---,0.00,VWS V14.00,2013-01-22 04:09:00,
2013-01-21 23:14:00,49.9,36.6,29.95,West,259,6.0,12.0,60,0.00,,---,0.00,VWS V14.00,2013-01-22 04:14:00,
2013-01-21 23:19:00,50.3,36.1,29.95,West,266,8.0,12.0,58,0.00,,---,0.00,VWS V14.00,2013-01-22 04:19:00,
2013-01-21 23:24:00,50.6,36.4,29.95,West,265,7.0,12.0,58,0.00,,---,0.00,VWS V14.00,2013-01-22 04:24:00,
2013-01-21 23:29:00,50.8,35.7,29.95,West,263,7.0,9.0,56,0.00,,---,0.00,VWS V14.00,2013-01-22 04:29:00,
2013-01-21 23:34:00,51.5,35.9,29.95,West,271,9.0,13.0,55,0.00,,---,0.00,VWS V14.00,2013-01-22 04:34:00,
2013-01-21 23:39:00,51.7,35.1,29.95,West,274,8.0,13.0,53,0.00,,---,0.00,VWS V14.00,2013-01-22 04:39:00,
2013-01-21 23:44:00,52.0,34.9,29.95,West,278,8.0,13.0,52,0.00,,---,0.00,VWS V14.00,2013-01-22 04:44:00,
2013-01-21 23:49:00,52.0,34.9,29.96,WNW,290,11.0,16.0,52,0.00,,---,0.00,VWS V14.00,2013-01-22 04:49:00,
2013-01-21 23:54:00,52.1,35.0,29.96,West,279,16.0,17.0,52,0.00,,---,0.00,VWS V14.00,2013-01-22 04:54:00,
2013-01-21 23:59:00,52.2,34.6,29.96,WNW,291,7.0,18.0,51,0.00,,---,0.00,VWS V14.00,2013-01-22 04:59:00,